Terminal Aerodrome Forecast
Issued by NWS

Home | Current Version | Previous Version | Text Only | Print | Product List | Glossary Off
Versions: 1 2 3 4 5 6 7 8 9 10 11 12 13 14 15 16

000
FTUS43 KMPX 160535
TAFRWF
TAF
KRWF 160535Z 1606/1706 18006KT P6SM BKN250
     FM161500 VRB03KT P6SM SCT040 BKN100
     FM162000 05004KT P6SM SCT015 OVC030
     FM162200 02005KT P6SM SCT010 OVC020
     FM170400 33006KT P6SM SCT015 OVC030=

USA.gov is the U.S. government's official web portal to all federal, state and local government web resources and services.